createdAt,value
2023-03-20T00:00:18.630Z,20.02
2023-03-20T00:02:47.715Z,20.15
2023-03-20T00:05:22.039Z,20.67
2023-03-20T00:07:52.801Z,20.80
2023-03-20T00:10:28.066Z,20.70
2023-03-20T00:12:58.325Z,20.95
2023-03-20T00:15:32.815Z,20.45
2023-03-20T00:18:02.022Z,20.85
2023-03-20T00:20:31.764Z,20.08
2023-03-20T00:23:00.806Z,21.08
2023-03-20T00:25:32.702Z,20.38
2023-03-20T00:28:01.995Z,20.40
2023-03-20T00:30:33.544Z,20.17
2023-03-20T00:33:02.560Z,19.80
2023-03-20T00:35:33.445Z,19.73
2023-03-20T00:38:02.549Z,19.17
2023-03-20T00:40:33.452Z,18.50
2023-03-20T00:43:04.889Z,19.75
2023-03-20T00:45:36.847Z,18.73
2023-03-20T00:48:07.776Z,19.88
2023-03-20T00:50:36.787Z,20.38
2023-03-20T00:53:11.204Z,19.00
2023-03-20T00:55:42.193Z,18.85
2023-03-20T00:58:12.396Z,18.83
2023-03-20T01:00:43.851Z,18.73
2023-03-20T01:03:18.415Z,19.55
2023-03-20T01:05:52.192Z,19.10
2023-03-20T01:08:23.477Z,20.20
2023-03-20T01:10:56.922Z,19.95
2023-03-20T01:13:29.456Z,19.15
2023-03-20T01:15:59.917Z,19.65
2023-03-20T01:18:29.277Z,20.05
2023-03-20T01:20:59.191Z,19.35
2023-03-20T01:23:28.643Z,18.60
2023-03-20T01:25:59.094Z,20.13
2023-03-20T01:28:29.715Z,17.58
2023-03-20T01:31:00.201Z,18.45
2023-03-20T01:33:30.931Z,19.70
2023-03-20T01:36:00.221Z,19.85
2023-03-20T01:38:30.056Z,19.58
2023-03-20T01:41:07.348Z,19.40
2023-03-20T01:43:40.211Z,20.80
2023-03-20T01:46:21.454Z,19.75
2023-03-20T01:49:30.898Z,19.50
2023-03-20T01:52:04.913Z,18.85
2023-03-20T01:54:39.100Z,19.35
2023-03-20T01:57:19.683Z,19.17
2023-03-20T01:59:53.186Z,19.10
2023-03-20T02:02:27.304Z,18.33
2023-03-20T02:05:03.487Z,19.17
2023-03-20T02:07:36.123Z,17.83
2023-03-20T02:10:15.317Z,17.92
2023-03-20T02:13:05.521Z,17.23
2023-03-20T02:16:04.924Z,19.80
2023-03-20T02:18:50.589Z,18.98
2023-03-20T02:22:18.783Z,19.80
2023-03-20T02:25:29.220Z,17.75
2023-03-20T02:28:44.108Z,18.60
2023-03-20T02:31:46.607Z,19.02
2023-03-20T02:34:48.625Z,19.30
2023-03-20T02:37:57.574Z,17.52
2023-03-20T02:40:38.480Z,18.13
2023-03-20T02:43:15.931Z,17.58
2023-03-20T02:45:56.595Z,18.23
2023-03-20T02:48:47.504Z,16.90
2023-03-20T02:51:27.042Z,16.20
2023-03-20T02:54:08.091Z,16.73
2023-03-20T02:56:49.321Z,16.65
2023-03-20T02:59:30.084Z,16.58
2023-03-20T03:02:06.766Z,16.40
2023-03-20T03:04:39.711Z,16.73
2023-03-20T03:07:14.394Z,16.33
2023-03-20T03:09:52.546Z,16.83
2023-03-20T03:12:24.940Z,16.92
2023-03-20T03:14:56.544Z,18.02
2023-03-20T03:17:29.606Z,18.00
2023-03-20T03:20:02.963Z,18.42
2023-03-20T03:22:34.829Z,17.38
2023-03-20T03:25:06.591Z,19.13
2023-03-20T03:27:40.468Z,21.27
2023-03-20T03:30:17.029Z,19.42
2023-03-20T03:32:50.602Z,20.98
2023-03-20T03:35:23.530Z,21.00
2023-03-20T03:38:00.419Z,19.60
2023-03-20T03:40:37.120Z,19.70
2023-03-20T03:43:15.715Z,20.48
2023-03-20T03:45:51.502Z,18.83
2023-03-20T03:48:25.024Z,18.80
2023-03-20T03:50:58.703Z,18.77
2023-03-20T03:53:33.075Z,18.02
2023-03-20T03:56:09.532Z,18.40
2023-03-20T03:58:42.042Z,17.38
2023-03-20T04:01:13.959Z,18.58
2023-03-20T04:03:49.664Z,18.63
2023-03-20T04:06:20.343Z,19.85
2023-03-20T04:08:49.371Z,20.48
2023-03-20T04:11:22.588Z,22.92
2023-03-20T04:13:53.511Z,20.90
2023-03-20T04:16:25.851Z,19.60
2023-03-20T04:18:56.549Z,20.33
2023-03-20T04:21:25.900Z,19.40
2023-03-20T04:23:54.919Z,20.70
2023-03-20T04:26:27.304Z,19.13
2023-03-20T04:28:56.460Z,20.33
2023-03-20T04:31:54.478Z,17.08
2023-03-20T04:34:58.900Z,17.30
2023-03-20T04:37:37.319Z,18.25
2023-03-20T04:40:10.742Z,17.88
2023-03-20T04:42:44.951Z,17.42
2023-03-20T04:45:14.057Z,19.13
2023-03-20T04:47:43.835Z,20.98
2023-03-20T04:50:15.568Z,21.15
2023-03-20T04:52:45.736Z,21.67
2023-03-20T04:55:16.133Z,20.60
2023-03-20T04:57:47.034Z,21.60
2023-03-20T05:00:18.521Z,21.20
2023-03-20T05:02:47.486Z,20.00
2023-03-20T05:05:18.086Z,20.30
2023-03-20T05:07:47.420Z,19.73
2023-03-20T05:10:22.836Z,19.83
2023-03-20T05:13:01.486Z,20.33
2023-03-20T05:15:49.044Z,20.00
2023-03-20T05:18:29.566Z,20.52
2023-03-20T05:21:17.501Z,18.13
2023-03-20T05:24:05.812Z,18.38
2023-03-20T05:26:46.566Z,19.17
2023-03-20T05:29:48.995Z,17.73
2023-03-20T05:32:30.339Z,17.75
2023-03-20T05:35:23.147Z,18.75
2023-03-20T05:38:00.868Z,19.83
2023-03-20T05:40:50.431Z,21.05
2023-03-20T05:43:19.292Z,19.38
2023-03-20T05:46:27.772Z,19.40
2023-03-20T05:49:15.573Z,20.13
2023-03-20T05:52:10.367Z,18.92
2023-03-20T05:54:44.605Z,18.17
2023-03-20T05:57:36.157Z,18.45
2023-03-20T06:00:41.223Z,19.48
2023-03-20T06:03:37.101Z,17.88
2023-03-20T06:06:14.863Z,18.08
2023-03-20T06:08:48.341Z,17.58
2023-03-20T06:11:18.809Z,19.02
2023-03-20T06:13:47.958Z,18.27
2023-03-20T06:16:16.974Z,18.67
2023-03-20T06:18:47.772Z,18.05
2023-03-20T06:21:19.308Z,18.88
2023-03-20T06:23:48.442Z,18.08
2023-03-20T06:26:17.421Z,17.98
2023-03-20T06:28:59.359Z,17.23
2023-03-20T06:31:28.416Z,16.77
2023-03-20T06:33:58.787Z,16.20
2023-03-20T06:36:28.268Z,17.70
2023-03-20T06:39:04.111Z,16.98
2023-03-20T06:41:34.969Z,15.30
2023-03-20T06:44:08.546Z,14.80
2023-03-20T06:46:57.849Z,15.60
2023-03-20T06:49:28.899Z,15.00
2023-03-20T06:51:59.397Z,16.08
2023-03-20T06:54:31.590Z,16.20
2023-03-20T06:57:03.604Z,17.33
2023-03-20T06:59:32.602Z,15.35
2023-03-20T07:02:01.615Z,16.13
2023-03-20T07:04:32.037Z,16.73
2023-03-20T07:07:05.631Z,17.40
2023-03-20T07:09:37.298Z,17.98
2023-03-20T07:12:11.158Z,16.90
2023-03-20T07:14:40.487Z,19.17
2023-03-20T07:17:14.540Z,18.20
2023-03-20T07:19:45.009Z,19.13
2023-03-20T07:22:22.865Z,17.75
2023-03-20T07:24:53.488Z,17.92
2023-03-20T07:27:27.177Z,17.33
2023-03-20T07:29:57.867Z,16.67
2023-03-20T07:32:27.092Z,16.98
2023-03-20T07:34:58.057Z,15.90
2023-03-20T07:37:27.548Z,15.05
2023-03-20T07:40:03.860Z,16.30
2023-03-20T07:42:40.356Z,15.90
2023-03-20T07:45:16.817Z,15.07
2023-03-20T07:47:48.665Z,15.65
2023-03-20T07:50:20.125Z,15.43
2023-03-20T07:52:49.526Z,15.50
2023-03-20T07:55:19.202Z,14.70
2023-03-20T07:57:51.102Z,14.20
2023-03-20T08:00:21.666Z,15.98
2023-03-20T08:02:50.953Z,15.48
2023-03-20T08:05:21.305Z,15.38
2023-03-20T08:07:50.728Z,13.95
2023-03-20T08:10:20.048Z,14.25
2023-03-20T08:12:48.942Z,14.60
2023-03-20T08:15:18.126Z,12.90
2023-03-20T08:17:47.853Z,13.27
2023-03-20T08:20:17.963Z,13.57
2023-03-20T08:22:49.684Z,13.15
2023-03-20T08:25:18.837Z,12.52
2023-03-20T08:27:47.888Z,12.85
2023-03-20T08:30:17.385Z,13.30
2023-03-20T08:32:46.528Z,12.73
2023-03-20T08:35:31.821Z,14.30
2023-03-20T08:38:03.736Z,13.27
2023-03-20T08:40:33.117Z,12.73
2023-03-20T08:43:02.108Z,12.48
2023-03-20T08:45:31.036Z,12.02
2023-03-20T08:47:59.961Z,13.35
2023-03-20T08:50:28.949Z,13.63
2023-03-20T08:52:57.817Z,14.80
2023-03-20T08:55:28.164Z,14.18
2023-03-20T08:57:57.554Z,14.63
2023-03-20T09:00:27.736Z,13.95
2023-03-20T09:02:56.829Z,14.13
2023-03-20T09:05:26.220Z,13.88
2023-03-20T09:07:55.330Z,13.50
2023-03-20T09:10:24.358Z,12.32
2023-03-20T09:12:54.638Z,14.02
2023-03-20T09:15:23.586Z,13.38
2023-03-20T09:17:52.610Z,12.32
2023-03-20T09:20:21.844Z,11.82
2023-03-20T09:22:51.033Z,11.73
2023-03-20T09:25:22.702Z,12.00
2023-03-20T09:27:55.373Z,11.20
2023-03-20T09:30:25.579Z,11.98
2023-03-20T09:32:54.599Z,11.15
2023-03-20T09:35:23.586Z,11.40
2023-03-20T09:37:52.846Z,11.75
2023-03-20T09:40:29.030Z,12.25
2023-03-20T09:43:11.179Z,11.27
2023-03-20T09:45:51.525Z,10.82
2023-03-20T09:48:32.182Z,11.40
2023-03-20T09:51:13.210Z,10.85
2023-03-20T09:53:46.367Z,10.55
2023-03-20T09:56:20.524Z,10.63
2023-03-20T09:58:56.141Z,11.27
2023-03-20T10:01:28.853Z,10.85
2023-03-20T10:04:01.557Z,11.27
2023-03-20T10:06:30.644Z,11.00
2023-03-20T10:08:59.609Z,10.48
2023-03-20T10:12:06.769Z,10.98
2023-03-20T10:14:52.880Z,11.65
2023-03-20T10:17:41.093Z,11.18
2023-03-20T10:20:23.533Z,10.38
2023-03-20T10:22:56.986Z,10.95
2023-03-20T10:25:32.397Z,11.95
2023-03-20T10:28:04.354Z,10.40
2023-03-20T10:31:01.358Z,10.98
2023-03-20T10:33:49.744Z,10.90
2023-03-20T10:36:41.459Z,11.00
2023-03-20T10:39:22.006Z,11.00
2023-03-20T10:41:59.954Z,10.25
2023-03-20T10:44:39.208Z,10.80
2023-03-20T10:47:15.292Z,10.68
2023-03-20T10:49:51.603Z,10.52
2023-03-20T10:52:26.391Z,11.13
2023-03-20T10:55:01.565Z,10.90
2023-03-20T10:57:35.446Z,10.45
2023-03-20T11:00:12.943Z,11.07
2023-03-20T11:02:43.373Z,10.30
2023-03-20T11:05:24.938Z,11.32
2023-03-20T11:08:03.635Z,10.60
2023-03-20T11:10:36.358Z,10.68
2023-03-20T11:13:19.423Z,10.48
2023-03-20T11:15:48.426Z,9.57
2023-03-20T11:18:18.691Z,10.60
2023-03-20T11:20:52.413Z,10.68
2023-03-20T11:23:30.274Z,9.85
2023-03-20T11:26:02.343Z,10.40
2023-03-20T11:28:36.878Z,10.27
2023-03-20T11:31:17.294Z,9.43
2023-03-20T11:33:53.120Z,9.57
2023-03-20T11:36:28.083Z,9.95
2023-03-20T11:39:07.328Z,9.30
2023-03-20T11:41:42.285Z,9.45
2023-03-20T11:44:27.762Z,9.65
2023-03-20T11:46:58.850Z,9.82
2023-03-20T11:49:29.351Z,10.38
2023-03-20T11:52:03.608Z,10.18
2023-03-20T11:54:32.598Z,10.25
2023-03-20T11:57:02.021Z,11.02
2023-03-20T11:59:34.069Z,9.80
2023-03-20T12:02:05.903Z,10.23
2023-03-20T12:04:42.123Z,11.05
2023-03-20T12:07:17.883Z,10.15
2023-03-20T12:09:50.771Z,10.63
2023-03-20T12:12:41.059Z,10.05
2023-03-20T12:15:20.198Z,9.02
2023-03-20T12:17:56.826Z,10.57
2023-03-20T12:20:36.542Z,10.52
2023-03-20T12:23:14.881Z,9.82
2023-03-20T12:25:53.137Z,9.80
2023-03-20T12:28:29.124Z,9.38
2023-03-20T12:31:13.829Z,10.02
2023-03-20T12:33:51.443Z,9.43
2023-03-20T12:36:31.929Z,9.50
2023-03-20T12:39:03.014Z,8.68
2023-03-20T12:41:42.199Z,9.95
2023-03-20T12:44:33.355Z,9.40
2023-03-20T12:47:19.453Z,10.20
2023-03-20T12:49:58.173Z,9.48
2023-03-20T12:52:45.955Z,9.18
2023-03-20T12:55:32.559Z,10.35
2023-03-20T12:58:20.317Z,9.77
2023-03-20T13:01:00.919Z,10.13
2023-03-20T13:03:44.862Z,9.45
2023-03-20T13:06:21.091Z,9.85
2023-03-20T13:09:34.436Z,9.55
2023-03-20T13:12:12.988Z,10.00
2023-03-20T13:14:48.772Z,10.50
2023-03-20T13:17:28.355Z,9.48
2023-03-20T13:20:22.234Z,9.77
2023-03-20T13:23:04.608Z,9.45
2023-03-20T13:26:14.957Z,9.85
2023-03-20T13:28:56.638Z,9.80
2023-03-20T13:31:42.236Z,9.82
2023-03-20T13:34:26.084Z,9.38
2023-03-20T13:37:23.323Z,8.90
2023-03-20T13:40:05.954Z,9.00
2023-03-20T13:42:43.931Z,9.65
2023-03-20T13:45:32.356Z,8.73
2023-03-20T13:48:10.770Z,10.50
2023-03-20T13:50:47.093Z,9.68
2023-03-20T13:53:29.863Z,9.57
2023-03-20T13:56:09.774Z,9.35
2023-03-20T13:59:03.756Z,10.00
2023-03-20T14:01:47.225Z,9.48
2023-03-20T14:04:20.061Z,8.50
2023-03-20T14:06:56.262Z,8.82
2023-03-20T14:09:32.691Z,8.27
2023-03-20T14:12:07.360Z,8.38
2023-03-20T14:14:47.432Z,8.05
2023-03-20T14:17:22.482Z,7.40
2023-03-20T14:19:52.427Z,8.25
2023-03-20T14:22:24.274Z,6.85
2023-03-20T14:24:58.981Z,7.63
2023-03-20T14:27:43.826Z,8.00
2023-03-20T14:30:42.784Z,8.52
2023-03-20T14:33:31.174Z,7.13
2023-03-20T14:36:23.373Z,7.10
2023-03-20T14:39:07.675Z,7.32
2023-03-20T14:41:53.090Z,7.30
2023-03-20T14:44:33.486Z,7.60
2023-03-20T14:47:12.970Z,7.80
2023-03-20T14:49:55.306Z,8.43
2023-03-20T14:52:42.202Z,7.90
2023-03-20T14:55:35.405Z,8.27
2023-03-20T14:58:46.855Z,9.18
2023-03-20T15:01:20.517Z,8.43
2023-03-20T15:03:57.232Z,10.02
2023-03-20T15:06:29.367Z,8.68
2023-03-20T15:09:02.284Z,7.45
2023-03-20T15:11:31.820Z,7.57
2023-03-20T15:14:03.665Z,7.22
2023-03-20T15:16:35.956Z,6.63
2023-03-20T15:19:19.240Z,6.70
2023-03-20T15:21:50.644Z,7.65
2023-03-20T15:24:24.150Z,7.28
2023-03-20T15:26:55.998Z,5.97
2023-03-20T15:29:25.411Z,6.20
2023-03-20T15:32:12.816Z,5.70
2023-03-20T15:34:47.451Z,5.53
2023-03-20T15:37:19.219Z,6.10
2023-03-20T15:39:52.062Z,6.30
2023-03-20T15:42:24.322Z,6.22
2023-03-20T15:44:55.931Z,5.82
2023-03-20T15:47:26.721Z,7.28
2023-03-20T15:50:00.192Z,7.53
2023-03-20T15:52:34.373Z,7.22
2023-03-20T15:55:08.779Z,7.53
2023-03-20T15:57:40.861Z,6.72
2023-03-20T16:00:17.876Z,6.55
2023-03-20T16:02:49.091Z,7.30
2023-03-20T16:05:26.357Z,6.85
2023-03-20T16:07:56.358Z,7.78
2023-03-20T16:10:31.678Z,7.53
2023-03-20T16:13:00.927Z,7.22
2023-03-20T16:15:32.431Z,7.45
2023-03-20T16:18:05.006Z,8.40
2023-03-20T16:20:42.538Z,7.10
2023-03-20T16:23:12.498Z,6.63
2023-03-20T16:25:42.097Z,7.20
2023-03-20T16:28:15.874Z,7.22
2023-03-20T16:30:44.833Z,7.68
2023-03-20T16:33:18.308Z,6.88
2023-03-20T16:35:51.247Z,6.80
2023-03-20T16:38:26.945Z,7.22
2023-03-20T16:40:58.444Z,6.50
2023-03-20T16:43:32.105Z,6.60
2023-03-20T16:46:06.908Z,6.45
2023-03-20T16:48:39.265Z,5.90
2023-03-20T16:51:18.642Z,6.03
2023-03-20T16:53:49.552Z,5.50
2023-03-20T16:56:27.005Z,6.95
2023-03-20T16:58:57.144Z,6.03
2023-03-20T17:01:29.619Z,5.85
2023-03-20T17:04:12.388Z,5.75
2023-03-20T17:06:49.533Z,5.85
2023-03-20T17:09:27.572Z,6.93
2023-03-20T17:12:06.032Z,6.97
2023-03-20T17:14:35.263Z,6.50
2023-03-20T17:17:04.309Z,6.75
2023-03-20T17:19:34.072Z,8.10
2023-03-20T17:22:13.073Z,7.38
2023-03-20T17:24:42.106Z,8.10
2023-03-20T17:27:13.379Z,9.38
2023-03-20T17:29:42.990Z,8.77
2023-03-20T17:32:14.216Z,9.52
2023-03-20T17:34:43.916Z,10.13
2023-03-20T17:37:17.072Z,11.00
2023-03-20T17:39:46.161Z,9.50
2023-03-20T17:42:19.526Z,9.93
2023-03-20T17:44:49.721Z,10.43
2023-03-20T17:47:23.278Z,10.70
2023-03-20T17:49:54.576Z,10.48
2023-03-20T17:52:27.151Z,12.55
2023-03-20T17:54:56.624Z,12.48
2023-03-20T17:57:32.895Z,12.40
2023-03-20T18:00:03.420Z,13.27
2023-03-20T18:02:33.179Z,13.35
2023-03-20T18:05:02.108Z,13.00
2023-03-20T18:07:32.666Z,12.88
2023-03-20T18:10:02.089Z,12.13
2023-03-20T18:12:34.667Z,13.85
2023-03-20T18:15:04.112Z,13.98
2023-03-20T18:17:33.172Z,13.75
2023-03-20T18:20:05.515Z,12.77
2023-03-20T18:22:35.974Z,13.45
2023-03-20T18:25:05.328Z,12.35
2023-03-20T18:27:34.349Z,12.52
2023-03-20T18:30:03.673Z,14.90
2023-03-20T18:32:32.775Z,14.10
2023-03-20T18:35:01.840Z,14.38
2023-03-20T18:37:33.943Z,14.77
2023-03-20T18:40:04.483Z,14.02
2023-03-20T18:42:33.648Z,14.95
2023-03-20T18:45:04.698Z,13.23
2023-03-20T18:47:34.006Z,13.77
2023-03-20T18:50:02.933Z,14.90
2023-03-20T18:52:32.458Z,15.02
2023-03-20T18:55:01.579Z,14.07
2023-03-20T18:57:31.978Z,13.30
2023-03-20T19:00:00.949Z,14.88
2023-03-20T19:02:30.178Z,13.88
2023-03-20T19:04:59.109Z,13.57
2023-03-20T19:07:28.018Z,14.73
2023-03-20T19:09:56.965Z,14.05
2023-03-20T19:12:25.958Z,13.60
2023-03-20T19:14:56.318Z,13.68
2023-03-20T19:17:25.284Z,11.80
2023-03-20T19:19:55.845Z,13.23
2023-03-20T19:22:29.548Z,14.65
2023-03-20T19:24:58.942Z,14.73
2023-03-20T19:27:27.863Z,15.18
2023-03-20T19:29:58.173Z,12.90
2023-03-20T19:32:30.116Z,10.48
2023-03-20T19:37:49.108Z,9.05
2023-03-20T19:40:28.664Z,8.90
2023-03-20T19:43:02.455Z,8.20
2023-03-20T19:45:38.256Z,10.13
2023-03-20T19:48:16.034Z,9.48
2023-03-20T19:50:46.851Z,11.05
2023-03-20T19:53:19.219Z,10.57
2023-03-20T19:55:50.016Z,9.48
2023-03-20T19:58:19.008Z,10.23
2023-03-20T20:00:59.526Z,10.23
2023-03-20T20:03:30.008Z,9.73
2023-03-20T20:05:59.898Z,9.95
2023-03-20T20:08:44.789Z,11.32
2023-03-20T20:11:17.019Z,12.20
2023-03-20T20:16:39.593Z,9.27
2023-03-20T20:19:09.085Z,8.65
2023-03-20T20:24:27.351Z,12.05
2023-03-20T20:27:15.221Z,10.40
2023-03-20T20:29:51.636Z,12.18
2023-03-20T20:32:25.407Z,10.57
2023-03-20T20:38:36.623Z,11.65
2023-03-20T20:40:43.080Z,11.73
2023-03-20T20:43:12.409Z,11.25
2023-03-20T20:45:52.624Z,11.77
2023-03-20T20:48:23.013Z,12.18
2023-03-20T20:50:53.570Z,11.40
2023-03-20T20:53:23.639Z,10.50
2023-03-20T20:55:56.063Z,10.63
2023-03-20T20:58:27.093Z,10.77
2023-03-20T21:00:58.519Z,10.25
2023-03-20T21:03:29.630Z,10.60
2023-03-20T21:06:04.478Z,10.75
2023-03-20T21:08:34.975Z,10.55
2023-03-20T21:11:03.983Z,10.48
2023-03-20T21:13:34.534Z,10.13
2023-03-20T21:16:03.809Z,10.55
2023-03-20T21:18:34.498Z,11.10
2023-03-20T21:21:07.939Z,12.00
2023-03-20T21:23:38.410Z,17.73
2023-03-20T21:26:09.361Z,19.80
2023-03-20T21:28:38.838Z,19.90
2023-03-20T21:31:23.821Z,18.65
2023-03-20T21:33:56.002Z,17.10
2023-03-20T21:36:25.968Z,17.75
2023-03-20T21:39:07.807Z,17.48
2023-03-20T21:41:38.980Z,17.35
2023-03-20T21:44:16.647Z,15.88
2023-03-20T21:47:55.826Z,16.70
2023-03-20T21:53:08.486Z,17.27
2023-03-20T22:01:41.955Z,14.35
2023-03-20T22:10:18.753Z,19.23
2023-03-20T22:13:13.817Z,19.52
2023-03-20T22:18:50.891Z,17.55
2023-03-20T22:27:26.868Z,16.73
2023-03-20T22:38:41.456Z,16.42
2023-03-20T22:41:43.116Z,15.82
2023-03-20T22:46:44.691Z,15.43
2023-03-20T22:49:11.570Z,14.70
2023-03-20T22:51:50.691Z,14.40
2023-03-20T22:54:29.455Z,14.70
2023-03-20T22:56:59.739Z,12.88
2023-03-20T22:59:28.725Z,12.35
2023-03-20T23:01:57.603Z,14.80
2023-03-20T23:04:29.598Z,13.70
2023-03-20T23:06:59.155Z,13.65
2023-03-20T23:09:28.091Z,13.45
2023-03-20T23:11:57.059Z,14.32
2023-03-20T23:14:30.772Z,15.20
2023-03-20T23:17:02.538Z,16.17
2023-03-20T23:19:37.800Z,15.85
2023-03-20T23:22:13.959Z,15.25
2023-03-20T23:24:42.921Z,14.13
2023-03-20T23:27:11.819Z,16.45
2023-03-20T23:29:42.194Z,17.10
2023-03-20T23:32:11.293Z,17.10
2023-03-20T23:34:40.443Z,17.77
2023-03-20T23:37:09.759Z,17.33
2023-03-20T23:39:38.721Z,17.45
2023-03-20T23:42:20.389Z,17.38
2023-03-20T23:45:04.471Z,18.05
2023-03-20T23:47:43.856Z,17.58
2023-03-20T23:50:26.344Z,16.98
2023-03-20T23:55:50.489Z,16.20
2023-03-20T23:58:21.280Z,15.18
